Time;durP1;ratioP1;P1;durP2;ratioP2;P2;SDS_P1;SDS_P2;PMS_P1;PMS_P2;Temp;Humidity;BMP_temperature;BMP_pressure;BME280_temperature;BME280_humidity;BME280_pressure;Samples;Min_cycle;Max_cycle;Signal;HPM_P1;HPM_P2
2022/11/16 00:00:24;;;;;;;77.50;21.10;;;11.70;99.90;;;;;;5068245;28;20488;-87
2022/11/16 00:02:53;;;;;;;74.90;21.40;;;11.70;99.90;;;;;;5067497;28;20160;-87
2022/11/16 00:05:19;;;;;;;76.30;24.88;;;11.60;99.90;;;;;;5068543;28;20446;-87
2022/11/16 00:07:45;;;;;;;75.97;20.77;;;11.60;99.90;;;;;;5066849;28;20168;-87
2022/11/16 00:10:11;;;;;;;73.50;21.20;;;11.60;99.90;;;;;;5067106;28;20291;-87
2022/11/16 00:12:38;;;;;;;73.20;19.38;;;11.60;99.90;;;;;;5066869;28;20413;-87
2022/11/16 00:15:05;;;;;;;78.03;19.23;;;11.60;99.90;;;;;;5066033;28;20332;-87
2022/11/16 00:17:31;;;;;;;73.65;19.90;;;11.60;99.90;;;;;;5066794;28;20198;-87
2022/11/16 00:19:57;;;;;;;79.40;18.87;;;11.60;99.90;;;;;;5065476;28;20226;-87
2022/11/16 00:22:23;;;;;;;74.33;20.80;;;11.60;99.90;;;;;;5065917;28;20411;-87
2022/11/16 00:24:49;;;;;;;76.57;21.77;;;11.70;99.90;;;;;;5067180;28;20407;-87
2022/11/16 00:27:18;;;;;;;77.30;21.10;;;11.60;99.90;;;;;;5065910;28;20200;-87
2022/11/16 00:29:43;;;;;;;74.85;20.67;;;11.70;99.90;;;;;;5062355;28;20188;-86
2022/11/16 00:32:16;;;;;;;75.57;18.30;;;11.70;99.90;;;;;;5063859;28;20164;-87
2022/11/16 00:34:45;;;;;;;75.53;20.30;;;11.70;99.90;;;;;;5060771;28;20189;-87
2022/11/16 00:37:10;;;;;;;75.10;18.20;;;11.70;99.90;;;;;;5061469;28;20163;-87
2022/11/16 00:39:36;;;;;;;80.60;18.87;;;11.70;99.90;;;;;;5060525;28;20212;-87
2022/11/16 00:42:02;;;;;;;75.10;22.20;;;11.70;99.90;;;;;;5060800;28;20268;-87
2022/11/16 00:44:27;;;;;;;76.30;22.10;;;11.70;99.90;;;;;;5061066;28;20221;-87
2022/11/16 00:46:53;;;;;;;76.93;23.40;;;11.70;99.90;;;;;;5060651;28;20989;-87
2022/11/16 00:49:19;;;;;;;76.60;21.97;;;11.60;99.90;;;;;;5060010;28;20238;-87
2022/11/16 00:51:47;;;;;;;77.20;22.67;;;11.70;99.90;;;;;;5056830;28;20164;-87
2022/11/16 00:54:12;;;;;;;76.38;21.20;;;11.70;99.90;;;;;;5056981;28;20211;-87
2022/11/16 00:56:38;;;;;;;85.27;22.80;;;11.70;99.90;;;;;;5056820;28;20160;-87
2022/11/16 00:59:07;;;;;;;81.43;18.08;;;11.70;99.90;;;;;;5054329;28;20626;-87
2022/11/16 01:01:33;;;;;;;77.22;20.80;;;11.70;99.90;;;;;;5056197;28;20169;-87
2022/11/16 01:03:58;;;;;;;76.90;20.60;;;11.70;99.90;;;;;;5058280;28;20172;-87
2022/11/16 01:06:24;;;;;;;73.67;17.73;;;11.70;99.90;;;;;;5055760;28;20434;-87
2022/11/16 01:08:50;;;;;;;77.57;22.27;;;11.70;99.90;;;;;;5056060;28;20172;-87
2022/11/16 01:14:05;;;;;;;81.18;19.42;;;11.70;99.90;;;;;;5056675;28;20238;-87
2022/11/16 01:16:30;;;;;;;76.55;20.20;;;11.60;99.90;;;;;;5054400;28;20570;-87
2022/11/16 01:18:56;;;;;;;78.90;21.87;;;11.60;99.90;;;;;;5055511;28;20263;-87
2022/11/16 01:21:23;;;;;;;77.17;19.83;;;11.60;99.90;;;;;;5053990;28;20232;-87
2022/11/16 01:23:49;;;;;;;76.85;20.92;;;11.60;99.90;;;;;;5054322;28;20673;-87
2022/11/16 01:26:18;;;;;;;78.70;21.35;;;11.70;99.90;;;;;;5055331;28;20172;-87
2022/11/16 01:28:44;;;;;;;77.95;21.50;;;11.60;99.90;;;;;;5055990;28;20172;-87
2022/11/16 01:31:16;;;;;;;75.87;19.57;;;11.60;99.90;;;;;;5057236;28;20596;-87
2022/11/16 01:33:41;;;;;;;76.32;19.27;;;11.70;99.90;;;;;;5057424;28;20184;-87
2022/11/16 01:36:13;;;;;;;80.60;19.77;;;11.70;99.90;;;;;;5055574;28;20542;-87
2022/11/16 01:38:41;;;;;;;74.88;19.13;;;11.60;99.90;;;;;;5055498;28;20530;-87
2022/11/16 01:41:07;;;;;;;75.93;22.00;;;11.60;99.90;;;;;;5056746;28;20192;-87
2022/11/16 01:43:53;;;;;;;76.37;21.00;;;11.60;99.90;;;;;;5056236;28;20171;-87
2022/11/16 01:46:19;;;;;;;77.30;20.38;;;11.60;99.90;;;;;;5055513;28;20407;-87
2022/11/16 01:48:48;;;;;;;77.43;19.52;;;11.60;99.90;;;;;;5054160;28;20230;-87
2022/11/16 01:51:14;;;;;;;75.68;19.30;;;11.60;99.90;;;;;;5053255;28;20598;-87
2022/11/16 01:53:40;;;;;;;77.95;16.80;;;11.60;99.90;;;;;;5053000;28;20200;-87
2022/11/16 01:56:07;;;;;;;80.13;21.10;;;11.70;99.90;;;;;;5053856;28;20167;-87
2022/11/16 01:58:33;;;;;;;77.13;18.92;;;11.60;99.90;;;;;;5054692;28;20649;-87
2022/11/16 02:00:59;;;;;;;77.43;19.13;;;11.60;99.90;;;;;;5055236;28;20363;-87
2022/11/16 02:03:25;;;;;;;76.80;19.90;;;11.50;99.90;;;;;;5055449;28;20220;-87
2022/11/16 02:06:16;;;;;;;77.78;19.88;;;11.50;99.90;;;;;;5053426;28;20604;-87
2022/11/16 02:12:29;;;;;;;73.35;14.80;;;11.50;99.90;;;;;;5054649;28;20228;-87
2022/11/16 02:14:58;;;;;;;76.05;16.02;;;11.60;99.90;;;;;;5055059;28;20200;-87
2022/11/16 02:17:42;;;;;;;73.65;13.75;;;11.60;99.90;;;;;;5054335;28;20618;-87
2022/11/16 02:20:10;;;;;;;73.47;15.10;;;11.70;99.90;;;;;;5056597;28;20578;-87
2022/11/16 02:23:03;;;;;;;73.18;15.63;;;11.60;99.90;;;;;;5059892;28;20153;-87
2022/11/16 02:26:07;;;;;;;81.82;14.85;;;11.70;99.90;;;;;;5060470;28;20187;-87
2022/11/16 02:28:45;;;;;;;75.05;14.68;;;11.60;99.90;;;;;;5059459;28;20641;-87
2022/11/16 02:31:15;;;;;;;76.95;18.00;;;11.60;99.90;;;;;;5058664;28;20188;-87
2022/11/16 02:33:44;;;;;;;74.50;15.63;;;11.60;99.90;;;;;;5057999;28;20192;-87
2022/11/16 02:36:13;;;;;;;76.20;15.63;;;11.60;99.90;;;;;;5059557;28;20198;-87
2022/11/16 02:38:46;;;;;;;73.35;15.25;;;11.60;99.90;;;;;;5061239;28;20725;-87
2022/11/16 02:41:16;;;;;;;73.38;14.55;;;11.60;99.90;;;;;;5059827;28;20234;-87
2022/11/16 02:43:46;;;;;;;73.15;15.10;;;11.60;99.90;;;;;;5061375;28;20153;-87
2022/11/16 02:46:19;;;;;;;71.85;13.13;;;11.60;99.90;;;;;;5062620;28;20580;-87
2022/11/16 02:48:49;;;;;;;72.40;14.13;;;11.60;99.90;;;;;;5064083;28;20152;-87
2022/11/16 02:51:17;;;;;;;70.72;14.02;;;11.60;99.90;;;;;;5062916;28;20263;-87
2022/11/16 02:54:00;;;;;;;75.05;14.57;;;11.60;99.90;;;;;;5066101;28;20194;-87
2022/11/16 02:56:27;;;;;;;73.63;15.10;;;11.60;99.90;;;;;;5068223;28;20148;-87
2022/11/16 02:58:53;;;;;;;71.78;12.50;;;11.60;99.90;;;;;;5068601;28;20165;-87
2022/11/16 03:01:26;;;;;;;72.77;15.00;;;11.60;99.90;;;;;;5068948;28;20184;-87
2022/11/16 03:03:59;;;;;;;71.03;12.90;;;11.60;99.90;;;;;;5069284;28;20449;-87
2022/11/16 03:06:31;;;;;;;71.63;13.77;;;11.60;99.90;;;;;;5067988;28;20155;-87
2022/11/16 03:09:02;;;;;;;72.68;13.75;;;11.60;99.90;;;;;;5064188;28;20175;-87
2022/11/16 03:14:18;;;;;;;76.07;13.70;;;11.60;99.90;;;;;;5059312;28;20196;-87
2022/11/16 03:16:48;;;;;;;71.13;12.05;;;11.60;99.90;;;;;;5059326;28;20152;-87
2022/11/16 03:19:20;;;;;;;70.75;11.82;;;11.70;99.90;;;;;;5061666;28;20259;-87
2022/11/16 03:21:56;;;;;;;70.22;12.65;;;11.70;99.90;;;;;;5062964;28;20148;-87
2022/11/16 03:24:22;;;;;;;71.57;13.75;;;11.60;99.90;;;;;;5064411;28;20247;-87
2022/11/16 03:27:09;;;;;;;70.30;15.17;;;11.50;99.90;;;;;;5068515;28;20172;-87
2022/11/16 03:29:52;;;;;;;70.57;14.88;;;11.50;99.90;;;;;;5071109;28;20433;-86
2022/11/16 03:32:24;;;;;;;69.68;14.25;;;11.50;99.90;;;;;;5069861;28;20180;-87
2022/11/16 03:35:01;;;;;;;70.80;16.00;;;11.50;99.90;;;;;;5070227;28;20268;-87
2022/11/16 03:37:29;;;;;;;69.32;13.07;;;11.50;99.90;;;;;;5071338;28;20222;-87
2022/11/16 03:39:56;;;;;;;70.00;13.90;;;11.50;99.90;;;;;;5069886;28;20204;-87
2022/11/16 03:42:24;;;;;;;72.10;15.07;;;11.50;99.90;;;;;;5067674;28;20165;-87
2022/11/16 03:44:51;;;;;;;71.35;15.82;;;11.50;99.90;;;;;;5066254;28;20168;-87
2022/11/16 03:47:17;;;;;;;71.13;16.98;;;11.50;99.90;;;;;;5065163;28;20165;-87
2022/11/16 03:49:47;;;;;;;71.20;12.70;;;11.50;99.90;;;;;;5063306;28;20248;-87
2022/11/16 03:52:16;;;;;;;71.38;14.48;;;11.50;99.90;;;;;;5064256;28;20206;-87
2022/11/16 03:54:42;;;;;;;67.95;10.70;;;11.50;99.90;;;;;;5066197;28;20215;-87
2022/11/16 03:57:14;;;;;;;69.87;12.33;;;11.60;99.90;;;;;;5068615;28;20164;-87
2022/11/16 03:59:41;;;;;;;70.95;12.13;;;11.60;99.90;;;;;;5069253;28;20415;-87
2022/11/16 04:02:07;;;;;;;71.35;11.82;;;11.70;99.90;;;;;;5060475;28;20165;-87
2022/11/16 04:24:28;;;;;;;71.80;11.30;;;11.70;99.90;;;;;;5057914;28;20167;-87
2022/11/16 04:29:44;;;;;;;70.38;10.15;;;11.60;99.90;;;;;;5056572;28;20207;-87
2022/11/16 04:37:47;;;;;;;68.30;9.05;;;11.70;99.90;;;;;;5063063;28;20556;-87
2022/11/16 04:40:21;;;;;;;68.35;9.18;;;11.60;99.90;;;;;;5057639;28;20195;-87
2022/11/16 04:42:55;;;;;;;67.63;10.68;;;11.70;99.90;;;;;;5058178;28;20149;-87
2022/11/16 04:48:07;;;;;;;72.40;11.45;;;11.70;99.90;;;;;;5059089;28;20206;-87
2022/11/16 04:50:33;;;;;;;67.85;12.77;;;11.60;99.90;;;;;;5058006;28;20185;-87
2022/11/16 04:52:59;;;;;;;67.30;10.43;;;11.60;99.90;;;;;;5056273;28;20168;-87
2022/11/16 04:55:25;;;;;;;68.43;9.90;;;11.60;99.90;;;;;;5057281;28;20166;-87
2022/11/16 04:57:51;;;;;;;69.15;11.20;;;11.50;99.90;;;;;;5057701;28;20203;-87
2022/11/16 05:00:17;;;;;;;69.17;10.93;;;11.50;99.90;;;;;;5057999;28;20180;-87
2022/11/16 05:02:42;;;;;;;69.80;12.03;;;11.60;99.90;;;;;;5061187;28;20247;-87
2022/11/16 05:05:09;;;;;;;67.90;10.67;;;11.50;99.90;;;;;;5064074;28;20407;-87
2022/11/16 05:07:35;;;;;;;68.75;10.73;;;11.60;99.90;;;;;;5063629;28;20164;-87
2022/11/16 05:10:02;;;;;;;69.70;13.97;;;11.60;99.90;;;;;;5064410;28;20238;-87
2022/11/16 05:12:28;;;;;;;69.68;14.35;;;11.60;99.90;;;;;;5063475;28;20466;-88
2022/11/16 05:14:55;;;;;;;68.90;15.25;;;11.60;99.90;;;;;;5062578;28;20268;-87
2022/11/16 05:17:21;;;;;;;67.97;14.02;;;11.60;99.90;;;;;;5058660;28;20168;-87
2022/11/16 05:22:32;;;;;;;70.05;16.65;;;11.50;99.90;;;;;;5059884;28;20152;-87
2022/11/16 05:24:58;;;;;;;69.05;16.08;;;11.50;99.90;;;;;;5060899;28;20180;-87
2022/11/16 05:27:25;;;;;;;71.20;15.50;;;11.50;99.90;;;;;;5059539;28;20176;-87
2022/11/16 05:29:51;;;;;;;68.85;15.05;;;11.40;99.90;;;;;;5059678;28;20192;-87
2022/11/16 05:32:18;;;;;;;68.05;13.30;;;11.30;99.90;;;;;;5061872;28;20179;-87
2022/11/16 05:34:45;;;;;;;69.78;15.23;;;11.40;99.90;;;;;;5060312;28;20192;-87
2022/11/16 05:37:11;;;;;;;69.05;15.20;;;11.40;99.90;;;;;;5060432;28;20165;-87
2022/11/16 05:39:37;;;;;;;67.70;12.85;;;11.40;99.90;;;;;;5130470;22;20278;-87
2022/11/16 05:42:04;;;;;;;70.10;16.17;;;11.40;99.90;;;;;;5059600;28;20282;-86
2022/11/16 05:44:29;;;;;;;68.47;14.45;;;11.40;99.90;;;;;;5060565;28;20168;-86
2022/11/16 05:46:55;;;;;;;68.30;12.50;;;11.40;99.90;;;;;;5077859;28;20498;-86
2022/11/16 05:49:22;;;;;;;67.57;12.73;;;11.30;99.90;;;;;;5077941;28;20193;-86
2022/11/16 05:51:48;;;;;;;69.90;13.05;;;11.20;99.90;;;;;;5077021;28;20168;-86
2022/11/16 05:54:16;;;;;;;66.78;10.52;;;11.10;99.90;;;;;;5077977;28;20661;-87
2022/11/16 05:56:42;;;;;;;66.53;10.75;;;11.10;99.90;;;;;;5078180;28;20163;-86
2022/11/16 05:59:08;;;;;;;66.47;9.17;;;11.00;99.90;;;;;;5077361;28;20186;-86
2022/11/16 06:01:33;;;;;;;66.47;10.17;;;11.00;99.90;;;;;;5076768;28;20245;-86
2022/11/16 06:04:00;;;;;;;67.77;11.97;;;10.80;99.90;;;;;;5077628;28;20168;-86
2022/11/16 06:06:27;;;;;;;68.47;12.23;;;10.80;99.90;;;;;;5076400;28;20406;-86
2022/11/16 06:08:56;;;;;;;67.72;11.45;;;10.80;99.90;;;;;;5077649;28;20168;-86
2022/11/16 06:11:22;;;;;;;68.15;12.25;;;10.70;99.90;;;;;;5075988;28;20171;-86
2022/11/16 06:13:48;;;;;;;67.70;9.90;;;10.70;99.90;;;;;;5074879;28;20673;-86
2022/11/16 06:16:14;;;;;;;68.78;10.32;;;10.70;99.90;;;;;;5075888;28;20160;-86
2022/11/16 06:18:42;;;;;;;65.97;8.00;;;10.60;99.90;;;;;;5076025;28;20159;-86
2022/11/16 06:21:09;;;;;;;67.13;9.45;;;10.60;99.90;;;;;;5076117;28;20181;-86
2022/11/16 06:23:35;;;;;;;67.18;8.80;;;10.50;99.90;;;;;;5075607;28;20198;-87
2022/11/16 06:26:01;;;;;;;67.90;9.40;;;10.50;99.90;;;;;;5075672;28;20176;-86
2022/11/16 06:28:27;;;;;;;66.07;8.70;;;10.40;99.90;;;;;;5075338;28;20403;-87
2022/11/16 06:30:53;;;;;;;67.10;10.00;;;10.40;99.90;;;;;;5075277;28;20652;-86
2022/11/16 06:33:19;;;;;;;67.20;8.77;;;10.40;99.90;;;;;;5075020;28;20441;-87
2022/11/16 06:35:45;;;;;;;66.70;9.77;;;10.30;99.90;;;;;;5077934;28;20239;-86
2022/11/16 06:38:17;;;;;;;66.57;9.47;;;10.20;99.90;;;;;;5077290;28;20931;-86
2022/11/16 06:40:52;;;;;;;68.05;8.63;;;10.20;99.90;;;;;;5076684;28;20460;-87
2022/11/16 06:43:18;;;;;;;67.43;6.80;;;10.10;99.90;;;;;;5079361;28;20183;-84
2022/11/16 06:45:48;;;;;;;66.93;7.18;;;10.10;99.90;;;;;;5079293;28;20171;-86
2022/11/16 06:48:14;;;;;;;65.28;5.45;;;10.00;99.90;;;;;;5077665;28;20209;-86
2022/11/16 06:50:40;;;;;;;73.80;6.30;;;10.00;99.90;;;;;;5076512;28;20191;-86
2022/11/16 06:53:05;;;;;;;66.00;6.40;;;10.00;99.90;;;;;;5075929;28;20190;-87
2022/11/16 06:55:31;;;;;;;67.77;7.17;;;10.00;99.90;;;;;;5077150;28;20168;-86
2022/11/16 06:57:57;;;;;;;68.10;7.97;;;10.00;99.90;;;;;;5077006;28;20161;-86
2022/11/16 07:00:24;;;;;;;70.40;8.87;;;10.00;99.90;;;;;;5077635;28;20656;-87
2022/11/16 07:02:49;;;;;;;76.03;9.00;;;9.90;99.90;;;;;;5076072;28;20168;-86
2022/11/16 07:05:15;;;;;;;68.70;9.00;;;10.00;99.90;;;;;;5076614;28;20191;-86
2022/11/16 07:07:41;;;;;;;69.70;6.97;;;10.00;99.90;;;;;;5076524;28;20171;-86
2022/11/16 07:10:07;;;;;;;66.27;6.67;;;10.00;99.90;;;;;;5077993;28;20730;-87
2022/11/16 07:12:32;;;;;;;67.72;6.30;;;10.00;99.90;;;;;;5078025;28;20590;-86
2022/11/16 07:14:58;;;;;;;66.17;6.67;;;9.90;99.90;;;;;;5077590;28;20195;-87
2022/11/16 07:17:24;;;;;;;69.80;6.10;;;9.80;99.90;;;;;;5078951;28;20218;-86
2022/11/16 07:19:49;;;;;;;68.37;7.57;;;9.70;99.90;;;;;;5077141;28;20184;-87
2022/11/16 07:22:15;;;;;;;67.00;6.23;;;9.60;99.90;;;;;;5078269;28;20636;-86
2022/11/16 07:24:41;;;;;;;70.90;6.50;;;9.60;99.90;;;;;;5077179;28;20168;-86
2022/11/16 07:27:07;;;;;;;66.77;5.80;;;9.60;99.90;;;;;;5077443;28;20198;-87
2022/11/16 07:29:33;;;;;;;65.65;5.80;;;9.60;99.90;;;;;;5076179;28;20188;-87
2022/11/16 07:31:59;;;;;;;73.73;6.07;;;9.60;99.90;;;;;;5077744;28;20247;-87
2022/11/16 07:34:25;;;;;;;66.67;6.23;;;9.50;99.90;;;;;;5077478;28;20528;-87
2022/11/16 07:36:51;;;;;;;67.22;6.25;;;9.50;99.90;;;;;;5077604;28;20656;-86
2022/11/16 07:39:16;;;;;;;66.40;6.60;;;9.50;99.90;;;;;;5077258;28;20259;-87
2022/11/16 07:41:43;;;;;;;67.60;7.83;;;9.40;99.90;;;;;;5082352;28;20703;-86
2022/11/16 07:44:09;;;;;;;69.43;9.13;;;9.50;99.90;;;;;;5081956;28;20149;-86
2022/11/16 07:46:35;;;;;;;72.85;8.98;;;9.60;99.90;;;;;;5081369;28;20255;-87
2022/11/16 07:49:01;;;;;;;69.07;7.87;;;9.70;99.90;;;;;;5083732;28;20184;-86
2022/11/16 07:51:27;;;;;;;69.30;9.20;;;9.70;99.90;;;;;;5082874;28;20884;-86
2022/11/16 07:53:56;;;;;;;69.63;7.40;;;9.70;99.90;;;;;;5083385;28;20465;-86
2022/11/16 07:56:23;;;;;;;71.57;9.07;;;9.70;99.90;;;;;;5082926;28;20505;-86
2022/11/16 07:58:48;;;;;;;71.85;7.10;;;9.70;99.90;;;;;;5082892;28;20149;-86
2022/11/16 08:01:17;;;;;;;71.07;6.70;;;9.70;99.90;;;;;;5083144;28;20248;-86
2022/11/16 08:03:44;;;;;;;68.63;7.13;;;9.60;99.90;;;;;;5082919;28;20198;-86
2022/11/16 08:06:15;;;;;;;68.90;7.20;;;9.60;99.90;;;;;;5081267;28;20168;-86
2022/11/16 08:08:41;;;;;;;71.55;7.00;;;9.60;99.90;;;;;;5081639;28;20171;-86
2022/11/16 08:11:08;;;;;;;71.30;7.57;;;9.60;99.90;;;;;;5081047;28;20188;-86
2022/11/16 08:13:36;;;;;;;70.47;6.55;;;9.70;99.90;;;;;;5081386;28;20444;-86
2022/11/16 08:16:04;;;;;;;68.40;7.15;;;9.70;99.90;;;;;;5080593;28;20653;-86
2022/11/16 08:18:30;;;;;;;68.43;7.75;;;9.70;99.90;;;;;;5080801;28;20171;-86
2022/11/16 08:21:00;;;;;;;69.40;7.15;;;9.80;99.90;;;;;;5080944;28;20571;-86
2022/11/16 08:23:27;;;;;;;68.45;6.50;;;9.80;99.90;;;;;;5080690;28;20156;-86
2022/11/16 08:25:57;;;;;;;71.90;7.40;;;9.80;99.90;;;;;;5080140;28;20233;-86
2022/11/16 08:28:23;;;;;;;69.70;8.40;;;9.80;99.90;;;;;;5081365;28;20154;-86
2022/11/16 08:30:51;;;;;;;67.70;7.43;;;9.70;99.90;;;;;;5082241;28;20664;-86
2022/11/16 08:33:18;;;;;;;68.60;9.32;;;9.70;99.90;;;;;;5081304;28;20401;-86
2022/11/16 08:35:44;;;;;;;68.80;9.38;;;9.70;99.90;;;;;;5082366;28;20160;-86
2022/11/16 08:38:10;;;;;;;69.67;8.30;;;9.80;99.90;;;;;;5081225;28;20193;-86
2022/11/16 08:40:36;;;;;;;71.37;9.70;;;9.80;99.90;;;;;;5081332;28;20207;-86
2022/11/16 08:43:02;;;;;;;73.03;10.40;;;9.90;99.90;;;;;;5079385;28;20414;-86
2022/11/16 08:45:28;;;;;;;68.17;10.53;;;9.90;99.90;;;;;;5076883;28;20589;-86
2022/11/16 08:47:56;;;;;;;73.05;13.05;;;9.90;99.90;;;;;;5081980;28;20440;-86
2022/11/16 08:50:22;;;;;;;71.30;11.82;;;9.90;99.90;;;;;;5081345;28;20262;-86
2022/11/16 08:52:48;;;;;;;78.90;12.10;;;10.10;99.90;;;;;;5081230;28;20199;-86
2022/11/16 08:55:16;;;;;;;70.65;10.55;;;10.30;99.90;;;;;;5080573;28;20188;-86
2022/11/16 08:57:41;;;;;;;68.95;10.80;;;10.30;99.90;;;;;;5081939;28;20183;-86
2022/11/16 09:00:08;;;;;;;77.93;11.23;;;10.40;99.90;;;;;;5081017;28;20179;-86
2022/11/16 09:02:33;;;;;;;71.00;11.50;;;10.50;99.90;;;;;;5080626;28;20895;-86
2022/11/16 09:04:59;;;;;;;73.90;12.73;;;10.60;99.90;;;;;;5080701;28;20168;-86
2022/11/16 09:07:25;;;;;;;70.20;11.73;;;10.60;99.90;;;;;;5080138;28;20199;-86
2022/11/16 09:09:51;;;;;;;76.67;9.60;;;10.70;99.90;;;;;;5079445;28;20507;-86
2022/11/16 09:12:16;;;;;;;67.07;6.30;;;10.80;99.90;;;;;;5080901;28;20172;-86
2022/11/16 09:14:42;;;;;;;65.87;6.37;;;10.80;99.90;;;;;;5079402;28;20222;-86
2022/11/16 09:17:08;;;;;;;67.23;7.60;;;10.80;99.90;;;;;;5082671;28;20160;-86
2022/11/16 09:19:33;;;;;;;74.23;7.47;;;10.80;99.90;;;;;;5079676;28;20198;-86
2022/11/16 09:21:59;;;;;;;77.40;8.87;;;10.80;99.90;;;;;;5080834;28;20168;-86
2022/11/16 09:24:24;;;;;;;71.20;9.63;;;10.80;99.90;;;;;;5079565;28;20191;-86
2022/11/16 09:26:50;;;;;;;74.83;9.97;;;10.80;99.90;;;;;;5080345;28;20175;-86
2022/11/16 09:29:16;;;;;;;70.63;7.90;;;10.70;99.90;;;;;;5079380;28;20211;-86
2022/11/16 09:31:41;;;;;;;69.90;7.37;;;10.80;99.90;;;;;;5080262;28;20603;-86
2022/11/16 09:34:07;;;;;;;77.27;7.80;;;10.90;99.90;;;;;;5079495;28;20252;-86
2022/11/16 09:36:33;;;;;;;68.60;7.43;;;11.00;99.90;;;;;;5080058;28;20224;-86
2022/11/16 09:38:59;;;;;;;67.70;9.13;;;11.10;99.90;;;;;;5080370;28;20568;-85
2022/11/16 09:41:43;;;;;;;71.20;8.33;;;11.10;99.90;;;;;;5081104;28;20274;-86
2022/11/16 09:44:45;;;;;;;72.30;9.32;;;11.20;99.90;;;;;;5079890;28;20580;-86
2022/11/16 09:47:20;;;;;;;71.28;8.30;;;11.30;99.90;;;;;;5079831;28;20523;-86
2022/11/16 09:50:00;;;;;;;68.82;8.63;;;11.30;99.90;;;;;;5080568;28;20209;-86
2022/11/16 09:52:37;;;;;;;77.97;7.40;;;11.40;99.90;;;;;;5079452;28;20636;-86
2022/11/16 09:55:35;;;;;;;69.30;7.50;;;11.40;99.90;;;;;;5080169;28;20229;-86
2022/11/16 09:58:07;;;;;;;74.60;11.35;;;11.50;99.90;;;;;;5077465;28;20160;-86
2022/11/16 10:00:35;;;;;;;70.72;7.68;;;11.60;99.90;;;;;;5078788;28;20180;-86
2022/11/16 10:03:12;;;;;;;70.57;6.50;;;11.60;99.90;;;;;;5078183;28;20179;-86
2022/11/16 10:06:02;;;;;;;72.95;13.68;;;11.60;99.90;;;;;;5076982;28;20163;-86
2022/11/16 10:08:46;;;;;;;69.20;12.50;;;11.70;99.90;;;;;;5080428;28;20144;-86
2022/11/16 10:11:27;;;;;;;69.57;6.40;;;11.60;99.90;;;;;;5079410;28;20184;-86
2022/11/16 10:14:00;;;;;;;77.43;10.55;;;11.60;99.90;;;;;;5078563;28;20664;-86
2022/11/16 10:16:45;;;;;;;67.88;6.43;;;11.60;99.90;;;;;;5078795;28;20163;-85
2022/11/16 10:19:38;;;;;;;68.25;6.55;;;11.60;99.90;;;;;;5078886;28;20198;-86
2022/11/16 10:22:29;;;;;;;70.22;8.52;;;11.70;99.90;;;;;;5076534;28;20155;-86
2022/11/16 10:25:06;;;;;;;70.20;12.00;;;11.70;99.90;;;;;;5078382;28;20163;-86
2022/11/16 10:27:50;;;;;;;69.35;11.05;;;11.80;99.90;;;;;;5078057;28;20148;-86
2022/11/16 10:30:20;;;;;;;71.15;9.93;;;12.00;99.90;;;;;;5078562;28;20557;-85
2022/11/16 10:33:04;;;;;;;70.10;8.40;;;12.00;99.90;;;;;;5078115;28;20167;-85
2022/11/16 10:35:46;;;;;;;67.60;8.73;;;12.20;99.90;;;;;;5075729;28;20264;-85
2022/11/16 10:38:16;;;;;;;72.70;9.10;;;12.30;99.90;;;;;;5077966;28;20151;-85
2022/11/16 10:40:46;;;;;;;72.80;6.82;;;12.20;99.90;;;;;;5077206;28;20688;-85
2022/11/16 10:43:16;;;;;;;73.28;6.38;;;12.20;99.90;;;;;;5076679;28;20167;-86
2022/11/16 10:46:11;;;;;;;72.28;6.90;;;12.30;99.90;;;;;;5076585;28;20159;-85
2022/11/16 10:48:51;;;;;;;73.47;7.13;;;12.30;99.90;;;;;;5077290;28;20151;-85
2022/11/16 10:51:17;;;;;;;68.22;6.70;;;12.40;99.90;;;;;;5075137;28;20166;-85
2022/11/16 10:53:43;;;;;;;70.20;6.57;;;12.50;99.90;;;;;;5076891;28;20183;-85
2022/11/16 10:56:22;;;;;;;68.77;9.40;;;12.60;99.90;;;;;;5077555;28;20163;-85
2022/11/16 10:58:51;;;;;;;67.93;5.27;;;12.60;99.90;;;;;;5076173;28;20282;-85
2022/11/16 11:01:42;;;;;;;72.35;7.88;;;12.50;99.90;;;;;;5077243;28;20394;-85
2022/11/16 11:04:20;;;;;;;71.23;6.60;;;12.60;99.90;;;;;;5077480;28;20144;-85
2022/11/16 11:06:54;;;;;;;67.30;6.18;;;12.70;99.90;;;;;;5077705;28;20390;-85
2022/11/16 11:09:30;;;;;;;67.03;5.17;;;12.70;99.90;;;;;;5076757;28;20180;-85
2022/11/16 11:12:36;;;;;;;68.35;5.30;;;12.60;99.90;;;;;;5077465;28;20990;-85
2022/11/16 11:15:12;;;;;;;67.10;5.28;;;12.60;99.90;;;;;;5079097;28;20220;-85
2022/11/16 11:17:39;;;;;;;67.50;5.90;;;12.50;99.90;;;;;;5080915;28;20155;-82
2022/11/16 11:20:14;;;;;;;70.25;5.47;;;12.60;99.90;;;;;;5079403;28;20429;-82
2022/11/16 11:22:45;;;;;;;69.93;8.93;;;12.70;99.90;;;;;;5080898;28;20244;-83
2022/11/16 11:25:23;;;;;;;67.43;9.10;;;12.90;99.90;;;;;;5080015;28;20414;-82
2022/11/16 11:27:50;;;;;;;67.53;6.80;;;13.00;99.90;;;;;;5081584;28;20405;-85
2022/11/16 11:30:20;;;;;;;66.70;5.23;;;13.10;99.90;;;;;;5081117;28;20454;-85
2022/11/16 11:32:47;;;;;;;71.20;5.20;;;13.20;99.90;;;;;;5080894;28;20413;-85
2022/11/16 11:35:42;;;;;;;71.72;6.82;;;13.30;99.90;;;;;;5080509;28;20187;-85
2022/11/16 11:38:14;;;;;;;65.50;5.35;;;13.20;99.90;;;;;;5067054;28;20233;-85
2022/11/16 11:41:04;;;;;;;67.63;4.38;;;13.30;99.90;;;;;;5221168;22;20687;-87
2022/11/16 11:43:38;;;;;;;65.27;3.80;;;13.20;99.90;;;;;;5099327;28;20147;-86
2022/11/16 11:46:24;;;;;;;65.87;3.87;;;13.30;99.90;;;;;;5082378;28;20405;-86
2022/11/16 11:49:24;;;;;;;66.40;3.80;;;13.20;99.90;;;;;;5100719;28;20417;-86
2022/11/16 11:51:51;;;;;;;65.03;4.10;;;13.20;99.90;;;;;;5089620;28;20942;-87
2022/11/16 11:54:32;;;;;;;68.77;4.00;;;13.20;99.90;;;;;;5100395;28;20432;-87
2022/11/16 11:57:02;;;;;;;67.03;4.00;;;13.30;99.90;;;;;;5101393;28;20369;-87
2022/11/16 11:59:30;;;;;;;69.27;4.40;;;13.30;99.90;;;;;;5099505;28;20186;-86
2022/11/16 12:02:38;;;;;;;64.35;3.30;;;13.30;99.90;;;;;;5098523;28;20421;-87
2022/11/16 12:05:19;;;;;;;66.68;3.90;;;13.30;99.90;;;;;;5097364;28;20148;-86
2022/11/16 12:08:03;;;;;;;71.60;4.53;;;13.40;99.90;;;;;;5099404;28;20155;-86
2022/11/16 12:10:45;;;;;;;68.57;3.60;;;13.20;99.90;;;;;;5099203;28;20484;-87
2022/11/16 12:13:50;;;;;;;65.65;3.70;;;13.10;99.90;;;;;;5096903;28;20421;-87
2022/11/16 12:16:27;;;;;;;65.70;3.90;;;12.90;99.90;;;;;;5098796;28;20143;-87
2022/11/16 12:19:29;;;;;;;66.13;4.18;;;13.00;99.90;;;;;;5097652;28;20385;-86
2022/11/16 12:22:31;;;;;;;71.28;4.00;;;13.10;99.90;;;;;;5098191;28;20182;-87
2022/11/16 12:25:21;;;;;;;66.63;3.53;;;13.10;99.90;;;;;;5099801;28;20153;-86
2022/11/16 12:28:38;;;;;;;68.13;4.37;;;13.20;99.90;;;;;;5098193;28;20155;-86
2022/11/16 12:31:31;;;;;;;66.23;3.60;;;13.30;99.90;;;;;;5066285;28;20435;-86
2022/11/16 12:34:00;;;;;;;65.43;4.43;;;13.40;99.90;;;;;;5100973;28;20444;-86
2022/11/16 12:36:45;;;;;;;75.30;4.50;;;13.50;99.90;;;;;;5102597;28;20400;-87
2022/11/16 12:39:28;;;;;;;67.90;5.00;;;13.50;99.90;;;;;;5102947;28;20425;-86
2022/11/16 12:42:03;;;;;;;65.97;3.90;;;13.40;99.90;;;;;;5100883;28;20448;-86
2022/11/16 12:45:00;;;;;;;66.30;4.20;;;13.40;99.90;;;;;;5099642;28;20408;-86
2022/11/16 12:47:44;;;;;;;66.03;3.60;;;13.40;99.90;;;;;;5100586;28;20404;-86
2022/11/16 12:50:25;;;;;;;67.00;3.60;;;13.30;99.90;;;;;;5102731;28;20422;-86
2022/11/16 12:53:34;;;;;;;64.47;4.10;;;13.20;99.90;;;;;;5098573;28;20408;-86
2022/11/16 12:56:55;;;;;;;66.20;3.60;;;13.30;99.90;;;;;;5100709;28;20401;-86
2022/11/16 12:59:51;;;;;;;75.40;5.00;;;13.40;99.90;;;;;;5076996;28;20491;-86
2022/11/16 13:02:34;;;;;;;66.50;3.80;;;13.50;99.90;;;;;;5102562;28;20389;-86
2022/11/16 13:05:43;;;;;;;71.10;3.90;;;13.50;99.90;;;;;;5103841;28;20883;-86
2022/11/16 13:08:40;;;;;;;66.10;4.50;;;13.50;99.90;;;;;;5094739;28;20409;-86
2022/11/16 13:11:30;;;;;;;67.67;5.00;;;13.70;99.90;;;;;;5102402;28;20417;-86
2022/11/16 13:13:59;;;;;;;69.33;4.30;;;13.70;99.90;;;;;;5099614;28;20525;-86
2022/11/16 13:16:30;;;;;;;71.30;4.40;;;13.70;99.90;;;;;;5098992;28;20412;-86
2022/11/16 13:18:58;;;;;;;66.57;4.40;;;13.60;99.90;;;;;;5097533;28;20824;-86
2022/11/16 13:21:48;;;;;;;67.30;4.80;;;13.60;99.90;;;;;;5100768;28;20401;-86
2022/11/16 13:24:36;;;;;;;67.87;5.00;;;13.60;99.90;;;;;;5102928;28;20382;-86
2022/11/16 13:27:21;;;;;;;65.57;5.30;;;13.50;99.90;;;;;;5100459;28;20417;-86
2022/11/16 13:30:12;;;;;;;65.87;6.70;;;13.50;99.90;;;;;;5098100;28;20523;-86
2022/11/16 13:33:03;;;;;;;66.20;5.00;;;13.60;99.90;;;;;;5100608;28;20393;-86
2022/11/16 13:35:29;;;;;;;66.10;6.27;;;13.50;99.90;;;;;;5100772;28;20507;-86
2022/11/16 13:37:55;;;;;;;65.67;4.57;;;13.50;99.90;;;;;;5099592;28;20434;-86
2022/11/16 13:40:32;;;;;;;67.67;4.07;;;13.50;99.90;;;;;;5097102;28;20803;-86